Juneau, Wisconsin
Current Conditions -  °F | °C
As of 11:35 AM on Monday 22 Dec 2014 (Local Time) from KUNU Reporting Station
Haze Haze  
Wind Chill: 27°   Ceiling: 3500
Heat Index: 35°   Visibility: 5mi
Dew Point: 32°   Wind: 9mph
Humidity: 90%   Direction: 110°ESE
Pressure: 29.82"   Gusts: NA
Location:  43.41°N, 88.71°W
Report Text: KUNU 221735Z AUTO 11008KT 5SM BR OVC035 02/00 A2982 RMK AO2 T00150000
Loading
Personal Weather Stations






























Interactive Weather Map New forecast layout! Learn more

10-Day Weather Forecast

Advertisements
Track Severe Weather on mobile